sensor_id;sensor_type;location;lat;lon;timestamp;temperature;humidity
42147;DHT22;27815;43.410;11.852;2023-04-25T00:00:19;14.40;63.50
42147;DHT22;27815;43.410;11.852;2023-04-25T00:04:22;14.40;63.40
42147;DHT22;27815;43.410;11.852;2023-04-25T00:08:28;14.40;63.20
42147;DHT22;27815;43.410;11.852;2023-04-25T00:12:31;14.50;63.10
42147;DHT22;27815;43.410;11.852;2023-04-25T00:16:38;14.50;63.00
42147;DHT22;27815;43.410;11.852;2023-04-25T00:20:44;14.40;62.90
42147;DHT22;27815;43.410;11.852;2023-04-25T00:24:49;14.50;62.80
42147;DHT22;27815;43.410;11.852;2023-04-25T00:28:53;14.30;62.80
42147;DHT22;27815;43.410;11.852;2023-04-25T00:32:57;14.10;63.00
42147;DHT22;27815;43.410;11.852;2023-04-25T00:37:00;14.00;63.00
42147;DHT22;27815;43.410;11.852;2023-04-25T00:41:05;13.90;63.10
42147;DHT22;27815;43.410;11.852;2023-04-25T00:45:08;13.90;63.00
42147;DHT22;27815;43.410;11.852;2023-04-25T00:49:18;13.60;63.20
42147;DHT22;27815;43.410;11.852;2023-04-25T00:53:21;13.50;63.40
42147;DHT22;27815;43.410;11.852;2023-04-25T00:57:23;13.30;63.50
42147;DHT22;27815;43.410;11.852;2023-04-25T01:01:28;13.10;63.70
42147;DHT22;27815;43.410;11.852;2023-04-25T01:05:31;12.90;64.10
42147;DHT22;27815;43.410;11.852;2023-04-25T01:09:40;12.60;64.70
42147;DHT22;27815;43.410;11.852;2023-04-25T01:13:45;12.50;64.80
42147;DHT22;27815;43.410;11.852;2023-04-25T01:17:54;12.40;65.00
42147;DHT22;27815;43.410;11.852;2023-04-25T01:21:59;12.30;65.70
42147;DHT22;27815;43.410;11.852;2023-04-25T01:26:06;12.20;66.10
42147;DHT22;27815;43.410;11.852;2023-04-25T01:30:11;12.10;66.00
42147;DHT22;27815;43.410;11.852;2023-04-25T01:34:16;12.10;66.50
42147;DHT22;27815;43.410;11.852;2023-04-25T01:38:24;12.00;67.10
42147;DHT22;27815;43.410;11.852;2023-04-25T01:42:28;11.90;66.90
42147;DHT22;27815;43.410;11.852;2023-04-25T01:46:34;11.80;67.50
42147;DHT22;27815;43.410;11.852;2023-04-25T01:50:42;11.80;68.20
42147;DHT22;27815;43.410;11.852;2023-04-25T01:54:47;11.80;68.60
42147;DHT22;27815;43.410;11.852;2023-04-25T01:58:54;11.70;69.10
42147;DHT22;27815;43.410;11.852;2023-04-25T02:03:17;11.80;68.80
42147;DHT22;27815;43.410;11.852;2023-04-25T02:07:22;11.80;68.70
42147;DHT22;27815;43.410;11.852;2023-04-25T02:11:27;11.80;70.80
42147;DHT22;27815;43.410;11.852;2023-04-25T02:15:52;11.80;72.00
42147;DHT22;27815;43.410;11.852;2023-04-25T02:19:57;11.90;73.10
42147;DHT22;27815;43.410;11.852;2023-04-25T02:24:03;12.00;73.30
42147;DHT22;27815;43.410;11.852;2023-04-25T02:28:21;12.00;73.10
42147;DHT22;27815;43.410;11.852;2023-04-25T02:32:36;12.10;72.70
42147;DHT22;27815;43.410;11.852;2023-04-25T02:36:48;12.20;72.60
42147;DHT22;27815;43.410;11.852;2023-04-25T02:40:59;12.30;72.40
42147;DHT22;27815;43.410;11.852;2023-04-25T02:45:04;12.30;72.30
42147;DHT22;27815;43.410;11.852;2023-04-25T02:49:07;12.40;72.50
42147;DHT22;27815;43.410;11.852;2023-04-25T02:53:10;12.50;72.50
42147;DHT22;27815;43.410;11.852;2023-04-25T02:57:23;12.50;72.20
42147;DHT22;27815;43.410;11.852;2023-04-25T03:01:31;12.50;71.80
42147;DHT22;27815;43.410;11.852;2023-04-25T03:05:36;12.50;71.40
42147;DHT22;27815;43.410;11.852;2023-04-25T03:09:45;12.50;70.90
42147;DHT22;27815;43.410;11.852;2023-04-25T03:13:52;12.00;70.40
42147;DHT22;27815;43.410;11.852;2023-04-25T03:17:59;11.60;70.70
42147;DHT22;27815;43.410;11.852;2023-04-25T03:22:07;11.20;70.70
42147;DHT22;27815;43.410;11.852;2023-04-25T03:26:12;10.90;70.90
42147;DHT22;27815;43.410;11.852;2023-04-25T03:30:15;10.70;71.00
42147;DHT22;27815;43.410;11.852;2023-04-25T03:34:19;10.60;71.10
42147;DHT22;27815;43.410;11.852;2023-04-25T03:38:24;10.40;71.20
42147;DHT22;27815;43.410;11.852;2023-04-25T03:42:27;10.40;71.20
42147;DHT22;27815;43.410;11.852;2023-04-25T03:46:32;10.40;71.00
42147;DHT22;27815;43.410;11.852;2023-04-25T03:50:47;10.30;71.00
42147;DHT22;27815;43.410;11.852;2023-04-25T03:54:51;10.30;70.80
42147;DHT22;27815;43.410;11.852;2023-04-25T03:58:59;10.20;70.80
42147;DHT22;27815;43.410;11.852;2023-04-25T04:03:04;10.10;71.10
42147;DHT22;27815;43.410;11.852;2023-04-25T04:07:12;10.10;71.40
42147;DHT22;27815;43.410;11.852;2023-04-25T04:11:17;10.10;72.50
42147;DHT22;27815;43.410;11.852;2023-04-25T04:15:22;10.20;72.70
42147;DHT22;27815;43.410;11.852;2023-04-25T04:19:25;10.30;72.60
42147;DHT22;27815;43.410;11.852;2023-04-25T04:24:02;10.10;72.20
42147;DHT22;27815;43.410;11.852;2023-04-25T04:28:22;10.10;72.20
42147;DHT22;27815;43.410;11.852;2023-04-25T04:32:51;10.00;71.90
42147;DHT22;27815;43.410;11.852;2023-04-25T04:36:55;10.00;71.90
42147;DHT22;27815;43.410;11.852;2023-04-25T04:41:01;10.00;72.00
42147;DHT22;27815;43.410;11.852;2023-04-25T04:45:40;9.90;72.20
42147;DHT22;27815;43.410;11.852;2023-04-25T04:49:59;10.00;71.90
42147;DHT22;27815;43.410;11.852;2023-04-25T04:54:29;10.10;71.80
42147;DHT22;27815;43.410;11.852;2023-04-25T04:58:50;10.00;71.70
42147;DHT22;27815;43.410;11.852;2023-04-25T05:03:09;10.10;72.10
42147;DHT22;27815;43.410;11.852;2023-04-25T05:08:06;10.30;71.80
42147;DHT22;27815;43.410;11.852;2023-04-25T05:12:41;10.30;71.50
42147;DHT22;27815;43.410;11.852;2023-04-25T05:17:09;10.30;71.50
42147;DHT22;27815;43.410;11.852;2023-04-25T05:21:32;10.30;71.50
42147;DHT22;27815;43.410;11.852;2023-04-25T05:25:44;10.30;71.50
42147;DHT22;27815;43.410;11.852;2023-04-25T05:30:10;10.50;71.20
42147;DHT22;27815;43.410;11.852;2023-04-25T05:34:31;10.60;70.90
42147;DHT22;27815;43.410;11.852;2023-04-25T05:38:38;10.70;71.10
42147;DHT22;27815;43.410;11.852;2023-04-25T05:43:11;10.70;71.30
42147;DHT22;27815;43.410;11.852;2023-04-25T05:47:40;10.80;71.30
42147;DHT22;27815;43.410;11.852;2023-04-25T05:52:10;10.80;71.40
42147;DHT22;27815;43.410;11.852;2023-04-25T05:56:43;10.80;71.20
42147;DHT22;27815;43.410;11.852;2023-04-25T06:00:54;10.80;71.40
42147;DHT22;27815;43.410;11.852;2023-04-25T06:04:57;11.10;71.10
42147;DHT22;27815;43.410;11.852;2023-04-25T06:09:02;11.10;71.50
42147;DHT22;27815;43.410;11.852;2023-04-25T06:13:06;11.20;71.90
42147;DHT22;27815;43.410;11.852;2023-04-25T06:17:13;11.30;71.60
42147;DHT22;27815;43.410;11.852;2023-04-25T06:21:15;11.30;71.40
42147;DHT22;27815;43.410;11.852;2023-04-25T06:25:18;11.50;71.70
42147;DHT22;27815;43.410;11.852;2023-04-25T06:29:25;11.60;71.40
42147;DHT22;27815;43.410;11.852;2023-04-25T06:33:51;11.60;71.40
42147;DHT22;27815;43.410;11.852;2023-04-25T06:38:01;11.80;71.20
42147;DHT22;27815;43.410;11.852;2023-04-25T06:42:07;11.80;71.30
42147;DHT22;27815;43.410;11.852;2023-04-25T06:46:34;11.90;71.30
42147;DHT22;27815;43.410;11.852;2023-04-25T06:50:40;12.10;71.50
42147;DHT22;27815;43.410;11.852;2023-04-25T06:54:43;12.30;71.50
42147;DHT22;27815;43.410;11.852;2023-04-25T06:58:57;12.50;72.80
42147;DHT22;27815;43.410;11.852;2023-04-25T07:03:10;12.80;72.50
42147;DHT22;27815;43.410;11.852;2023-04-25T07:07:14;13.10;71.80
42147;DHT22;27815;43.410;11.852;2023-04-25T07:11:23;13.50;71.80
42147;DHT22;27815;43.410;11.852;2023-04-25T07:15:26;13.80;71.30
42147;DHT22;27815;43.410;11.852;2023-04-25T07:19:29;14.00;71.20
42147;DHT22;27815;43.410;11.852;2023-04-25T07:23:36;14.00;71.00
42147;DHT22;27815;43.410;11.852;2023-04-25T07:27:50;14.10;71.10
42147;DHT22;27815;43.410;11.852;2023-04-25T07:31:55;14.20;71.40
42147;DHT22;27815;43.410;11.852;2023-04-25T07:35:58;14.20;71.50
42147;DHT22;27815;43.410;11.852;2023-04-25T07:40:02;14.30;71.60
42147;DHT22;27815;43.410;11.852;2023-04-25T07:44:07;14.40;71.70
42147;DHT22;27815;43.410;11.852;2023-04-25T07:48:10;14.50;71.30
42147;DHT22;27815;43.410;11.852;2023-04-25T07:52:16;14.90;69.80
42147;DHT22;27815;43.410;11.852;2023-04-25T07:56:25;15.30;68.50
42147;DHT22;27815;43.410;11.852;2023-04-25T08:01:06;15.90;67.70
42147;DHT22;27815;43.410;11.852;2023-04-25T08:05:46;16.20;64.90
42147;DHT22;27815;43.410;11.852;2023-04-25T08:09:55;16.40;64.90
42147;DHT22;27815;43.410;11.852;2023-04-25T08:14:08;16.40;63.70
42147;DHT22;27815;43.410;11.852;2023-04-25T08:18:14;16.30;63.70
42147;DHT22;27815;43.410;11.852;2023-04-25T08:22:20;16.20;62.70
42147;DHT22;27815;43.410;11.852;2023-04-25T08:26:53;16.10;63.00
42147;DHT22;27815;43.410;11.852;2023-04-25T08:31:08;16.10;62.60
42147;DHT22;27815;43.410;11.852;2023-04-25T08:35:20;16.10;62.40
42147;DHT22;27815;43.410;11.852;2023-04-25T08:39:28;16.00;61.40
42147;DHT22;27815;43.410;11.852;2023-04-25T08:43:57;16.30;60.90
42147;DHT22;27815;43.410;11.852;2023-04-25T08:48:02;16.40;59.70
42147;DHT22;27815;43.410;11.852;2023-04-25T08:52:11;16.70;59.80
42147;DHT22;27815;43.410;11.852;2023-04-25T08:56:19;17.10;59.80
42147;DHT22;27815;43.410;11.852;2023-04-25T09:00:25;17.50;58.30
42147;DHT22;27815;43.410;11.852;2023-04-25T09:04:29;17.60;58.10
42147;DHT22;27815;43.410;11.852;2023-04-25T09:08:35;17.80;57.40
42147;DHT22;27815;43.410;11.852;2023-04-25T09:12:43;18.10;57.10
42147;DHT22;27815;43.410;11.852;2023-04-25T09:17:07;18.20;56.10
42147;DHT22;27815;43.410;11.852;2023-04-25T09:21:23;18.40;56.00
42147;DHT22;27815;43.410;11.852;2023-04-25T09:25:35;18.50;56.00
42147;DHT22;27815;43.410;11.852;2023-04-25T09:30:07;18.50;56.30
42147;DHT22;27815;43.410;11.852;2023-04-25T09:34:34;18.40;56.00
42147;DHT22;27815;43.410;11.852;2023-04-25T09:38:45;18.30;56.20
42147;DHT22;27815;43.410;11.852;2023-04-25T09:42:56;18.50;56.60
42147;DHT22;27815;43.410;11.852;2023-04-25T09:47:01;18.50;55.70
42147;DHT22;27815;43.410;11.852;2023-04-25T09:51:10;18.30;55.50
42147;DHT22;27815;43.410;11.852;2023-04-25T09:55:20;18.20;55.40
42147;DHT22;27815;43.410;11.852;2023-04-25T09:59:24;18.30;55.10
42147;DHT22;27815;43.410;11.852;2023-04-25T10:03:29;18.50;55.30
42147;DHT22;27815;43.410;11.852;2023-04-25T10:07:47;19.00;55.10
42147;DHT22;27815;43.410;11.852;2023-04-25T10:11:56;19.30;54.20
42147;DHT22;27815;43.410;11.852;2023-04-25T10:16:08;19.60;53.50
42147;DHT22;27815;43.410;11.852;2023-04-25T10:20:11;19.70;53.70
42147;DHT22;27815;43.410;11.852;2023-04-25T10:24:35;19.90;53.70
42147;DHT22;27815;43.410;11.852;2023-04-25T10:33:17;20.20;51.40
42147;DHT22;27815;43.410;11.852;2023-04-25T10:37:31;20.30;51.10
42147;DHT22;27815;43.410;11.852;2023-04-25T10:41:47;20.40;50.80
42147;DHT22;27815;43.410;11.852;2023-04-25T10:46:28;20.20;49.60
42147;DHT22;27815;43.410;11.852;2023-04-25T10:50:43;20.00;49.50
42147;DHT22;27815;43.410;11.852;2023-04-25T10:55:04;19.90;49.40
42147;DHT22;27815;43.410;11.852;2023-04-25T10:59:17;19.80;49.70
42147;DHT22;27815;43.410;11.852;2023-04-25T11:03:23;19.90;49.80
42147;DHT22;27815;43.410;11.852;2023-04-25T11:11:59;20.50;49.50
42147;DHT22;27815;43.410;11.852;2023-04-25T11:16:30;20.70;49.20
42147;DHT22;27815;43.410;11.852;2023-04-25T11:20:38;20.70;48.60
42147;DHT22;27815;43.410;11.852;2023-04-25T11:24:41;20.50;48.40
42147;DHT22;27815;43.410;11.852;2023-04-25T11:28:48;20.70;47.80
42147;DHT22;27815;43.410;11.852;2023-04-25T11:32:55;20.50;47.70
42147;DHT22;27815;43.410;11.852;2023-04-25T11:37:10;20.50;46.80
42147;DHT22;27815;43.410;11.852;2023-04-25T11:41:25;20.70;47.00
42147;DHT22;27815;43.410;11.852;2023-04-25T11:45:32;20.60;46.30
42147;DHT22;27815;43.410;11.852;2023-04-25T11:49:39;20.50;46.40
42147;DHT22;27815;43.410;11.852;2023-04-25T11:53:47;20.40;46.40
42147;DHT22;27815;43.410;11.852;2023-04-25T11:57:59;20.50;46.00
42147;DHT22;27815;43.410;11.852;2023-04-25T12:02:03;20.70;45.10
42147;DHT22;27815;43.410;11.852;2023-04-25T12:06:09;20.90;45.10
42147;DHT22;27815;43.410;11.852;2023-04-25T12:10:14;20.70;44.70
42147;DHT22;27815;43.410;11.852;2023-04-25T12:14:22;20.40;45.00
42147;DHT22;27815;43.410;11.852;2023-04-25T12:18:27;20.50;45.80
42147;DHT22;27815;43.410;11.852;2023-04-25T12:22:30;20.70;45.40
42147;DHT22;27815;43.410;11.852;2023-04-25T12:31:55;21.00;45.10
42147;DHT22;27815;43.410;11.852;2023-04-25T12:36:00;21.00;45.00
42147;DHT22;27815;43.410;11.852;2023-04-25T12:40:14;21.10;44.90
42147;DHT22;27815;43.410;11.852;2023-04-25T12:44:18;21.00;45.00
42147;DHT22;27815;43.410;11.852;2023-04-25T12:48:28;20.80;45.10
42147;DHT22;27815;43.410;11.852;2023-04-25T12:52:32;20.70;45.50
42147;DHT22;27815;43.410;11.852;2023-04-25T12:56:40;20.70;45.20
42147;DHT22;27815;43.410;11.852;2023-04-25T13:00:46;20.90;45.30
42147;DHT22;27815;43.410;11.852;2023-04-25T13:04:51;21.10;45.30
42147;DHT22;27815;43.410;11.852;2023-04-25T13:08:53;20.90;44.30
42147;DHT22;27815;43.410;11.852;2023-04-25T13:12:57;20.70;44.60
42147;DHT22;27815;43.410;11.852;2023-04-25T13:17:04;20.80;44.80
42147;DHT22;27815;43.410;11.852;2023-04-25T13:21:11;21.00;44.50
42147;DHT22;27815;43.410;11.852;2023-04-25T13:25:24;20.90;44.60
42147;DHT22;27815;43.410;11.852;2023-04-25T13:29:28;20.90;45.10
42147;DHT22;27815;43.410;11.852;2023-04-25T13:33:33;20.80;44.50
42147;DHT22;27815;43.410;11.852;2023-04-25T13:37:39;20.90;44.70
42147;DHT22;27815;43.410;11.852;2023-04-25T13:41:45;21.00;44.20
42147;DHT22;27815;43.410;11.852;2023-04-25T13:45:50;21.20;44.40
42147;DHT22;27815;43.410;11.852;2023-04-25T13:49:53;21.40;44.20
42147;DHT22;27815;43.410;11.852;2023-04-25T13:53:58;21.30;44.40
42147;DHT22;27815;43.410;11.852;2023-04-25T13:58:00;21.30;44.40
42147;DHT22;27815;43.410;11.852;2023-04-25T14:02:09;21.10;43.60
42147;DHT22;27815;43.410;11.852;2023-04-25T14:06:12;20.60;44.10
42147;DHT22;27815;43.410;11.852;2023-04-25T14:10:16;19.40;45.00
42147;DHT22;27815;43.410;11.852;2023-04-25T14:14:20;18.20;47.10
42147;DHT22;27815;43.410;11.852;2023-04-25T14:18:25;17.10;48.70
42147;DHT22;27815;43.410;11.852;2023-04-25T14:22:35;16.10;50.30
42147;DHT22;27815;43.410;11.852;2023-04-25T14:26:43;15.60;51.70
42147;DHT22;27815;43.410;11.852;2023-04-25T14:30:48;15.20;52.70
42147;DHT22;27815;43.410;11.852;2023-04-25T14:34:56;14.90;54.00
42147;DHT22;27815;43.410;11.852;2023-04-25T15:26:54;14.60;57.60
42147;DHT22;27815;43.410;11.852;2023-04-25T15:30:58;14.70;58.10
42147;DHT22;27815;43.410;11.852;2023-04-25T15:35:02;14.80;58.50
42147;DHT22;27815;43.410;11.852;2023-04-25T15:44:33;15.30;57.80
42147;DHT22;27815;43.410;11.852;2023-04-25T15:53:06;15.30;57.80
42147;DHT22;27815;43.410;11.852;2023-04-25T16:01:38;15.30;57.60
42147;DHT22;27815;43.410;11.852;2023-04-25T16:27:22;15.60;56.80
42147;DHT22;27815;43.410;11.852;2023-04-25T18:40:48;13.60;60.40
42147;DHT22;27815;43.410;11.852;2023-04-25T19:21:23;14.20;59.40
42147;DHT22;27815;43.410;11.852;2023-04-25T19:26:21;14.20;59.30
42147;DHT22;27815;43.410;11.852;2023-04-25T19:31:36;14.20;59.30
42147;DHT22;27815;43.410;11.852;2023-04-25T19:36:30;14.20;59.40
42147;DHT22;27815;43.410;11.852;2023-04-25T19:40:50;14.10;59.60
42147;DHT22;27815;43.410;11.852;2023-04-25T19:45:19;14.00;59.90
42147;DHT22;27815;43.410;11.852;2023-04-25T19:49:24;14.00;60.20
42147;DHT22;27815;43.410;11.852;2023-04-25T19:53:28;13.80;60.60
42147;DHT22;27815;43.410;11.852;2023-04-25T19:57:34;13.70;60.60
42147;DHT22;27815;43.410;11.852;2023-04-25T20:01:39;13.60;60.80
42147;DHT22;27815;43.410;11.852;2023-04-25T20:05:42;13.50;61.00
42147;DHT22;27815;43.410;11.852;2023-04-25T20:09:44;13.40;61.10
42147;DHT22;27815;43.410;11.852;2023-04-25T20:13:47;13.40;61.20
42147;DHT22;27815;43.410;11.852;2023-04-25T20:17:52;13.40;61.20
42147;DHT22;27815;43.410;11.852;2023-04-25T20:21:56;13.30;61.20
42147;DHT22;27815;43.410;11.852;2023-04-25T20:26:02;13.30;61.40
42147;DHT22;27815;43.410;11.852;2023-04-25T20:30:08;13.20;61.50
42147;DHT22;27815;43.410;11.852;2023-04-25T20:34:18;13.10;61.80
42147;DHT22;27815;43.410;11.852;2023-04-25T20:38:21;13.00;62.00
42147;DHT22;27815;43.410;11.852;2023-04-25T20:42:27;13.00;62.20
42147;DHT22;27815;43.410;11.852;2023-04-25T20:46:31;12.90;62.40
42147;DHT22;27815;43.410;11.852;2023-04-25T20:50:38;12.80;63.10
42147;DHT22;27815;43.410;11.852;2023-04-25T20:54:44;12.60;63.50
42147;DHT22;27815;43.410;11.852;2023-04-25T20:58:54;12.60;63.50
42147;DHT22;27815;43.410;11.852;2023-04-25T21:03:37;12.50;63.60
42147;DHT22;27815;43.410;11.852;2023-04-25T21:12:48;12.30;63.90
42147;DHT22;27815;43.410;11.852;2023-04-25T21:17:10;12.20;63.90
42147;DHT22;27815;43.410;11.852;2023-04-25T21:21:45;12.20;64.40
42147;DHT22;27815;43.410;11.852;2023-04-25T21:26:36;12.00;64.60
42147;DHT22;27815;43.410;11.852;2023-04-25T21:30:48;11.90;65.10
42147;DHT22;27815;43.410;11.852;2023-04-25T21:35:32;11.70;65.20
42147;DHT22;27815;43.410;11.852;2023-04-25T21:40:23;11.60;65.30
42147;DHT22;27815;43.410;11.852;2023-04-25T21:44:41;11.40;66.00
42147;DHT22;27815;43.410;11.852;2023-04-25T21:49:25;11.20;66.10
42147;DHT22;27815;43.410;11.852;2023-04-25T21:54:53;11.10;66.10
42147;DHT22;27815;43.410;11.852;2023-04-25T21:59:50;11.00;66.40
42147;DHT22;27815;43.410;11.852;2023-04-25T22:04:22;10.80;67.00
42147;DHT22;27815;43.410;11.852;2023-04-25T22:09:52;10.70;67.30
42147;DHT22;27815;43.410;11.852;2023-04-25T22:15:32;10.60;67.40
42147;DHT22;27815;43.410;11.852;2023-04-25T22:19:37;10.60;67.20
42147;DHT22;27815;43.410;11.852;2023-04-25T22:23:40;10.60;67.10
42147;DHT22;27815;43.410;11.852;2023-04-25T22:27:44;10.60;67.00
42147;DHT22;27815;43.410;11.852;2023-04-25T22:31:54;10.50;67.10
42147;DHT22;27815;43.410;11.852;2023-04-25T22:35:58;10.40;67.60
42147;DHT22;27815;43.410;11.852;2023-04-25T22:40:05;10.30;68.00
42147;DHT22;27815;43.410;11.852;2023-04-25T22:44:09;10.20;68.40
42147;DHT22;27815;43.410;11.852;2023-04-25T22:48:13;10.10;68.40
42147;DHT22;27815;43.410;11.852;2023-04-25T22:52:18;10.00;68.50
42147;DHT22;27815;43.410;11.852;2023-04-25T22:56:21;9.90;68.50
42147;DHT22;27815;43.410;11.852;2023-04-25T23:00:26;9.90;68.40
42147;DHT22;27815;43.410;11.852;2023-04-25T23:04:36;9.90;68.30
42147;DHT22;27815;43.410;11.852;2023-04-25T23:08:40;9.90;68.20
42147;DHT22;27815;43.410;11.852;2023-04-25T23:12:45;9.90;68.20
42147;DHT22;27815;43.410;11.852;2023-04-25T23:16:53;9.90;68.10
42147;DHT22;27815;43.410;11.852;2023-04-25T23:21:51;9.80;68.20
42147;DHT22;27815;43.410;11.852;2023-04-25T23:32:39;9.80;68.20
42147;DHT22;27815;43.410;11.852;2023-04-25T23:37:28;9.80;68.30
42147;DHT22;27815;43.410;11.852;2023-04-25T23:41:45;9.70;68.60
42147;DHT22;27815;43.410;11.852;2023-04-25T23:46:51;9.60;68.80
42147;DHT22;27815;43.410;11.852;2023-04-25T23:51:56;9.60;69.00
42147;DHT22;27815;43.410;11.852;2023-04-25T23:57:26;9.50;69.30
